Time,TemperatureF,DewpointF,PressureIn,WindDirection,WindDirectionDegrees,WindSpeedMPH,WindSpeedGustMPH,Humidity,HourlyPrecipIn,Conditions,Clouds,dailyrainin,SoftwareType,DateUTC
2013-09-26 00:03:00,64.4,40.1,29.58,SE,134,0.0,0.9,41,0.00,,,0.00,meteobridge,2013-09-26 06:03:00,
2013-09-26 00:08:00,64.2,40.1,29.58,SE,134,0.0,0.9,41,0.00,,,0.00,meteobridge,2013-09-26 06:08:00,
2013-09-26 00:13:00,63.9,40.3,29.57,SE,134,0.0,0.0,42,0.00,,,0.00,meteobridge,2013-09-26 06:13:00,
2013-09-26 00:19:00,63.3,41.0,29.57,SE,134,0.0,0.0,44,0.00,,,0.00,meteobridge,2013-09-26 06:19:00,
2013-09-26 00:24:00,62.6,41.0,29.57,SE,134,0.0,0.0,45,0.00,,,0.00,meteobridge,2013-09-26 06:24:00,
2013-09-26 00:29:00,62.1,41.0,29.57,SE,134,0.0,0.9,46,0.00,,,0.00,meteobridge,2013-09-26 06:29:00,
2013-09-26 00:34:00,61.7,41.9,29.57,SE,134,0.0,0.0,48,0.00,,,0.00,meteobridge,2013-09-26 06:34:00,
2013-09-26 00:39:00,61.5,41.7,29.57,SE,134,0.0,0.0,48,0.00,,,0.00,meteobridge,2013-09-26 06:39:00,
2013-09-26 00:44:00,61.3,42.1,29.57,SE,134,0.0,0.0,49,0.00,,,0.00,meteobridge,2013-09-26 06:44:00,
2013-09-26 00:49:00,61.0,42.3,29.57,SE,134,0.0,0.0,50,0.00,,,0.00,meteobridge,2013-09-26 06:49:00,
2013-09-26 00:54:00,60.3,42.6,29.57,SE,134,0.0,0.0,52,0.00,,,0.00,meteobridge,2013-09-26 06:54:00,
2013-09-26 01:00:00,59.9,42.3,29.57,SE,134,0.0,0.0,52,0.00,,,0.00,meteobridge,2013-09-26 07:00:00,
2013-09-26 01:05:00,59.7,42.1,29.57,SE,134,0.0,0.0,52,0.00,,,0.00,meteobridge,2013-09-26 07:05:00,
2013-09-26 01:10:00,59.5,41.9,29.57,SE,134,0.0,0.0,52,0.00,,,0.00,meteobridge,2013-09-26 07:10:00,
2013-09-26 01:15:00,59.5,42.4,29.57,SE,134,0.0,0.0,53,0.00,,,0.00,meteobridge,2013-09-26 07:15:00,
2013-09-26 01:21:00,59.5,42.8,29.57,SE,134,0.0,0.0,54,0.00,,,0.00,meteobridge,2013-09-26 07:21:00,
2013-09-26 01:26:00,59.2,42.6,29.57,SE,134,0.0,0.0,54,0.00,,,0.00,meteobridge,2013-09-26 07:26:00,
2013-09-26 01:31:00,58.6,43.0,29.57,SE,134,0.0,0.0,56,0.00,,,0.00,meteobridge,2013-09-26 07:31:00,
2013-09-26 01:36:00,58.3,43.2,29.57,SE,134,0.0,0.0,57,0.00,,,0.00,meteobridge,2013-09-26 07:36:00,
2013-09-26 01:41:00,58.3,43.2,29.57,SE,134,0.0,0.9,57,0.00,,,0.00,meteobridge,2013-09-26 07:41:00,
2013-09-26 01:46:00,57.9,43.2,29.57,SE,134,0.0,0.9,58,0.00,,,0.00,meteobridge,2013-09-26 07:46:00,
2013-09-26 01:52:00,57.9,42.8,29.58,SE,134,0.0,0.9,57,0.00,,,0.00,meteobridge,2013-09-26 07:52:00,
2013-09-26 01:57:00,58.3,43.2,29.58,SE,134,0.0,0.9,57,0.00,,,0.00,meteobridge,2013-09-26 07:57:00,
2013-09-26 02:02:00,58.1,43.0,29.57,SE,134,0.0,0.9,57,0.00,,,0.00,meteobridge,2013-09-26 08:02:00,
2013-09-26 02:07:00,58.3,42.6,29.57,SE,134,0.0,0.9,56,0.00,,,0.00,meteobridge,2013-09-26 08:07:00,
2013-09-26 02:12:00,58.1,43.0,29.57,SE,134,0.0,0.0,57,0.00,,,0.00,meteobridge,2013-09-26 08:12:00,
2013-09-26 02:18:00,57.9,44.6,29.58,SE,134,0.0,0.0,61,0.00,,,0.00,meteobridge,2013-09-26 08:18:00,
2013-09-26 02:23:00,57.7,43.9,29.58,SE,134,0.0,0.0,60,0.00,,,0.00,meteobridge,2013-09-26 08:23:00,
2013-09-26 02:28:00,57.6,43.3,29.57,SE,134,0.9,0.9,59,0.00,,,0.00,meteobridge,2013-09-26 08:28:00,
2013-09-26 02:33:00,57.6,43.3,29.57,SE,134,0.0,0.0,59,0.00,,,0.00,meteobridge,2013-09-26 08:33:00,
2013-09-26 02:38:00,57.0,43.7,29.57,SE,134,0.0,0.0,61,0.00,,,0.00,meteobridge,2013-09-26 08:38:00,
2013-09-26 02:43:00,57.6,43.0,29.57,SE,134,0.0,0.9,58,0.00,,,0.00,meteobridge,2013-09-26 08:43:00,
2013-09-26 02:48:00,57.6,43.3,29.58,SE,134,0.0,0.9,59,0.00,,,0.00,meteobridge,2013-09-26 08:48:00,
2013-09-26 02:53:00,57.4,43.2,29.58,SE,134,0.0,0.0,59,0.00,,,0.00,meteobridge,2013-09-26 08:53:00,
2013-09-26 02:59:00,56.8,43.5,29.58,SE,134,0.0,0.0,61,0.00,,,0.00,meteobridge,2013-09-26 08:59:00,
2013-09-26 03:04:00,56.7,43.3,29.58,SE,134,0.0,0.0,61,0.00,,,0.00,meteobridge,2013-09-26 09:04:00,
2013-09-26 03:09:00,56.5,43.2,29.58,SE,134,0.0,0.0,61,0.00,,,0.00,meteobridge,2013-09-26 09:09:00,
2013-09-26 03:14:00,56.3,43.5,29.58,SE,134,0.0,0.0,62,0.00,,,0.00,meteobridge,2013-09-26 09:14:00,
2013-09-26 03:19:00,55.9,43.5,29.58,SE,134,0.0,0.0,63,0.00,,,0.00,meteobridge,2013-09-26 09:19:00,
2013-09-26 03:24:00,55.6,43.5,29.57,SE,134,0.0,0.0,64,0.00,,,0.00,meteobridge,2013-09-26 09:24:00,
2013-09-26 03:29:00,55.6,43.5,29.58,SE,134,0.9,0.9,64,0.00,,,0.00,meteobridge,2013-09-26 09:29:00,
2013-09-26 03:34:00,55.4,43.9,29.58,SE,134,0.0,0.9,65,0.00,,,0.00,meteobridge,2013-09-26 09:34:00,
2013-09-26 03:40:00,55.2,43.7,29.58,SE,134,0.0,0.9,65,0.00,,,0.00,meteobridge,2013-09-26 09:40:00,
2013-09-26 03:45:00,55.2,43.7,29.58,SE,134,0.0,0.9,65,0.00,,,0.00,meteobridge,2013-09-26 09:45:00,
2013-09-26 03:50:00,55.2,43.7,29.58,SE,134,0.0,0.9,65,0.00,,,0.00,meteobridge,2013-09-26 09:50:00,
2013-09-26 03:55:00,55.2,44.1,29.58,SE,134,0.0,0.0,66,0.00,,,0.00,meteobridge,2013-09-26 09:55:00,
2013-09-26 04:00:00,55.0,43.9,29.58,SE,134,0.0,0.0,66,0.00,,,0.00,meteobridge,2013-09-26 10:00:00,
2013-09-26 04:06:00,54.9,44.1,29.58,SE,134,0.0,0.0,67,0.00,,,0.00,meteobridge,2013-09-26 10:06:00,
2013-09-26 04:11:00,54.5,44.2,29.58,SE,134,0.0,0.9,68,0.00,,,0.00,meteobridge,2013-09-26 10:11:00,
2013-09-26 04:17:00,54.3,44.1,29.58,SE,134,0.0,0.0,68,0.00,,,0.00,meteobridge,2013-09-26 10:17:00,
2013-09-26 04:22:00,54.1,43.9,29.58,SE,134,0.0,0.0,68,0.00,,,0.00,meteobridge,2013-09-26 10:22:00,
2013-09-26 04:27:00,54.1,44.2,29.58,SE,134,0.0,0.0,69,0.00,,,0.00,meteobridge,2013-09-26 10:27:00,
2013-09-26 04:32:00,54.1,43.9,29.58,SE,134,0.0,0.0,68,0.00,,,0.00,meteobridge,2013-09-26 10:32:00,
2013-09-26 04:38:00,54.0,44.4,29.58,SE,134,0.0,0.0,70,0.00,,,0.00,meteobridge,2013-09-26 10:38:00,
2013-09-26 04:43:00,53.8,44.6,29.58,SE,134,0.0,0.0,71,0.00,,,0.00,meteobridge,2013-09-26 10:43:00,
2013-09-26 04:48:00,53.4,44.2,29.58,SE,134,0.0,0.0,71,0.00,,,0.00,meteobridge,2013-09-26 10:48:00,
2013-09-26 04:53:00,53.4,44.2,29.58,SE,134,0.0,0.0,71,0.00,,,0.00,meteobridge,2013-09-26 10:53:00,
2013-09-26 04:58:00,53.4,44.2,29.58,SE,134,0.0,0.0,71,0.00,,,0.00,meteobridge,2013-09-26 10:58:00,
2013-09-26 05:04:00,53.4,44.2,29.59,SE,134,0.0,0.0,71,0.00,,,0.00,meteobridge,2013-09-26 11:04:00,
2013-09-26 05:09:00,53.2,44.1,29.59,SE,134,0.0,0.0,71,0.00,,,0.00,meteobridge,2013-09-26 11:09:00,
2013-09-26 05:14:00,53.1,44.2,29.59,SE,134,0.0,0.0,72,0.00,,,0.00,meteobridge,2013-09-26 11:14:00,
2013-09-26 05:19:00,53.1,43.9,29.59,SE,134,0.0,0.0,71,0.00,,,0.00,meteobridge,2013-09-26 11:19:00,
2013-09-26 05:24:00,52.9,44.1,29.59,SE,134,0.0,0.0,72,0.00,,,0.00,meteobridge,2013-09-26 11:24:00,
2013-09-26 05:29:00,52.9,44.1,29.59,SE,134,0.0,0.0,72,0.00,,,0.00,meteobridge,2013-09-26 11:29:00,
2013-09-26 05:34:00,52.9,44.1,29.59,SE,134,0.0,0.0,72,0.00,,,0.00,meteobridge,2013-09-26 11:34:00,
2013-09-26 05:40:00,52.9,43.7,29.59,SE,134,0.0,0.0,71,0.00,,,0.00,meteobridge,2013-09-26 11:40:00,
2013-09-26 05:45:00,52.9,43.7,29.59,SE,134,0.0,0.0,71,0.00,,,0.00,meteobridge,2013-09-26 11:45:00,
2013-09-26 05:50:00,52.5,43.7,29.59,SE,134,0.0,0.9,72,0.00,,,0.00,meteobridge,2013-09-26 11:50:00,
2013-09-26 05:55:00,52.5,43.7,29.59,SE,134,0.0,0.9,72,0.00,,,0.00,meteobridge,2013-09-26 11:55:00,
2013-09-26 06:00:00,52.5,43.3,29.59,SE,134,0.0,0.9,71,0.00,,,0.00,meteobridge,2013-09-26 12:00:00,
2013-09-26 06:05:00,52.3,43.5,29.59,SE,134,0.0,0.0,72,0.00,,,0.00,meteobridge,2013-09-26 12:05:00,
2013-09-26 06:10:00,52.3,43.5,29.59,SE,134,0.0,0.0,72,0.00,,,0.00,meteobridge,2013-09-26 12:10:00,
2013-09-26 06:15:00,52.3,43.2,29.60,SE,134,0.0,0.9,71,0.00,,,0.00,meteobridge,2013-09-26 12:15:00,
2013-09-26 06:20:00,52.3,43.2,29.60,SE,134,0.0,0.9,71,0.00,,,0.00,meteobridge,2013-09-26 12:20:00,
2013-09-26 06:25:00,52.3,43.5,29.60,SE,134,0.0,0.9,72,0.00,,,0.00,meteobridge,2013-09-26 12:25:00,
2013-09-26 06:30:00,52.2,43.3,29.60,SE,134,0.0,0.9,72,0.00,,,0.00,meteobridge,2013-09-26 12:30:00,
2013-09-26 06:36:00,52.0,43.2,29.60,SE,134,0.0,0.9,72,0.00,,,0.00,meteobridge,2013-09-26 12:36:00,
2013-09-26 06:41:00,52.2,43.3,29.61,SE,134,0.9,0.9,72,0.00,,,0.00,meteobridge,2013-09-26 12:41:00,
2013-09-26 06:46:00,52.2,43.0,29.61,SE,134,0.0,0.9,71,0.00,,,0.00,meteobridge,2013-09-26 12:46:00,
2013-09-26 06:51:00,52.3,43.2,29.61,SE,134,0.0,0.9,71,0.00,,,0.00,meteobridge,2013-09-26 12:51:00,
2013-09-26 06:56:00,52.3,42.8,29.61,SE,134,0.0,0.9,70,0.00,,,0.00,meteobridge,2013-09-26 12:56:00,
2013-09-26 07:01:00,52.3,42.8,29.61,SE,134,0.0,0.9,70,0.00,,,0.00,meteobridge,2013-09-26 13:01:00,
2013-09-26 07:06:00,52.3,42.8,29.61,SE,134,0.9,0.9,70,0.00,,,0.00,meteobridge,2013-09-26 13:06:00,
2013-09-26 07:11:00,52.5,42.6,29.61,SE,134,0.0,0.0,69,0.00,,,0.00,meteobridge,2013-09-26 13:11:00,
2013-09-26 07:17:00,52.3,43.2,29.62,SE,134,0.0,0.9,71,0.00,,,0.00,meteobridge,2013-09-26 13:17:00,
2013-09-26 07:22:00,52.0,43.5,29.62,SE,134,0.0,0.9,73,0.00,,,0.00,meteobridge,2013-09-26 13:22:00,
2013-09-26 07:27:00,52.2,43.7,29.62,SE,134,0.0,0.0,73,0.00,,,0.00,meteobridge,2013-09-26 13:27:00,
2013-09-26 07:32:00,52.5,43.7,29.62,SE,134,0.0,0.0,72,0.00,,,0.00,meteobridge,2013-09-26 13:32:00,
2013-09-26 07:37:00,53.1,44.2,29.63,SE,134,0.9,2.0,72,0.00,,,0.00,meteobridge,2013-09-26 13:37:00,
2013-09-26 07:42:00,54.0,44.1,29.63,SE,134,0.0,0.0,69,0.00,,,0.00,meteobridge,2013-09-26 13:42:00,
2013-09-26 07:47:00,55.6,44.1,29.63,SE,134,0.0,0.0,65,0.00,,,0.00,meteobridge,2013-09-26 13:47:00,
2013-09-26 07:52:00,56.7,44.2,29.63,SE,134,0.0,0.0,63,0.00,,,0.00,meteobridge,2013-09-26 13:52:00,
2013-09-26 07:57:00,57.6,44.2,29.63,SE,134,0.0,0.0,61,0.00,,,0.00,meteobridge,2013-09-26 13:57:00,
2013-09-26 08:03:00,58.5,43.7,29.63,SE,134,0.0,0.0,58,0.00,,,0.00,meteobridge,2013-09-26 14:03:00,
2013-09-26 08:08:00,59.4,44.1,29.63,SE,134,0.0,0.0,57,0.00,,,0.00,meteobridge,2013-09-26 14:08:00,
2013-09-26 08:13:00,61.3,45.5,29.63,SE,134,0.0,0.9,56,0.00,,,0.00,meteobridge,2013-09-26 14:13:00,
2013-09-26 08:18:00,62.2,45.0,29.63,SE,134,0.0,0.0,53,0.00,,,0.00,meteobridge,2013-09-26 14:18:00,
2013-09-26 08:23:00,62.6,45.1,29.63,SE,134,0.0,0.0,53,0.00,,,0.00,meteobridge,2013-09-26 14:23:00,
2013-09-26 08:28:00,62.2,45.0,29.63,SE,134,0.0,0.0,53,0.00,,,0.00,meteobridge,2013-09-26 14:28:00,
2013-09-26 08:33:00,62.6,44.2,29.63,SE,143,0.0,2.0,51,0.00,,,0.00,meteobridge,2013-09-26 14:33:00,
2013-09-26 08:38:00,63.7,43.2,29.63,South,188,0.0,2.9,47,0.00,,,0.00,meteobridge,2013-09-26 14:38:00,
2013-09-26 08:44:00,64.6,42.3,29.63,SSE,148,0.0,2.9,44,0.00,,,0.00,meteobridge,2013-09-26 14:44:00,
2013-09-26 08:49:00,65.1,41.5,29.63,SSE,167,2.9,4.9,42,0.00,,,0.00,meteobridge,2013-09-26 14:49:00,
2013-09-26 08:54:00,65.7,41.9,29.63,SSE,163,2.9,2.9,42,0.00,,,0.00,meteobridge,2013-09-26 14:54:00,
2013-09-26 08:59:00,66.0,40.3,29.63,SE,142,2.0,6.0,39,0.00,,,0.00,meteobridge,2013-09-26 14:59:00,
2013-09-26 09:04:00,66.7,41.0,29.63,SE,143,2.0,4.0,39,0.00,,,0.00,meteobridge,2013-09-26 15:04:00,
2013-09-26 09:09:00,67.3,40.1,29.63,SSE,157,2.0,4.9,37,0.00,,,0.00,meteobridge,2013-09-26 15:09:00,
2013-09-26 09:14:00,67.8,39.2,29.63,SE,145,2.0,4.0,35,0.00,,,0.00,meteobridge,2013-09-26 15:14:00,
2013-09-26 09:19:00,68.4,38.1,29.63,SE,130,4.9,4.9,33,0.00,,,0.00,meteobridge,2013-09-26 15:19:00,
2013-09-26 09:24:00,68.9,37.0,29.63,SE,142,2.9,8.1,31,0.00,,,0.00,meteobridge,2013-09-26 15:24:00,
2013-09-26 09:29:00,69.4,39.0,29.63,SE,146,4.9,4.9,33,0.00,,,0.00,meteobridge,2013-09-26 15:29:00,
2013-09-26 09:34:00,69.4,38.3,29.63,SSE,163,2.0,6.9,32,0.00,,,0.00,meteobridge,2013-09-26 15:34:00,
2013-09-26 09:39:00,70.0,38.8,29.64,WSW,250,2.0,6.0,32,0.00,,,0.00,meteobridge,2013-09-26 15:39:00,
2013-09-26 09:44:00,70.0,38.8,29.64,SE,133,4.0,6.9,32,0.00,,,0.00,meteobridge,2013-09-26 15:44:00,
2013-09-26 09:49:00,70.7,38.7,29.64,SSE,157,4.9,6.9,31,0.00,,,0.00,meteobridge,2013-09-26 15:49:00,
2013-09-26 09:55:00,70.9,38.7,29.64,South,177,6.0,6.9,31,0.00,,,0.00,meteobridge,2013-09-26 15:55:00,
2013-09-26 10:00:00,70.9,37.0,29.64,SW,221,4.0,10.1,29,0.00,,,0.00,meteobridge,2013-09-26 16:00:00,
2013-09-26 10:05:00,71.1,38.1,29.64,WSW,238,2.0,6.9,30,0.00,,,0.00,meteobridge,2013-09-26 16:05:00,
2013-09-26 10:10:00,70.7,37.8,29.64,SE,132,6.9,8.9,30,0.00,,,0.00,meteobridge,2013-09-26 16:10:00,
2013-09-26 10:15:00,71.1,38.8,29.64,SSW,202,6.9,8.9,31,0.00,,,0.00,meteobridge,2013-09-26 16:15:00,
2013-09-26 10:20:00,71.2,39.0,29.64,South,170,2.0,4.0,31,0.00,,,0.00,meteobridge,2013-09-26 16:20:00,
2013-09-26 10:25:00,72.1,38.1,29.64,WSW,246,4.0,6.0,29,0.00,,,0.00,meteobridge,2013-09-26 16:25:00,
2013-09-26 10:30:00,72.1,38.1,29.64,SSW,197,2.0,8.1,29,0.00,,,0.00,meteobridge,2013-09-26 16:30:00,
2013-09-26 10:35:00,72.7,37.8,29.64,SSE,161,4.9,11.0,28,0.00,,,0.00,meteobridge,2013-09-26 16:35:00,
2013-09-26 10:40:00,73.0,38.8,29.64,SW,229,4.0,6.9,29,0.00,,,0.00,meteobridge,2013-09-26 16:40:00,
2013-09-26 10:45:00,72.9,37.8,29.64,South,183,2.9,6.9,28,0.00,,,0.00,meteobridge,2013-09-26 16:45:00,
2013-09-26 10:50:00,73.0,37.9,29.64,WSW,239,2.9,6.9,28,0.00,,,0.00,meteobridge,2013-09-26 16:50:00,
2013-09-26 10:55:00,73.0,37.9,29.64,South,186,4.0,8.1,28,0.00,,,0.00,meteobridge,2013-09-26 16:55:00,
2013-09-26 11:00:00,73.6,37.6,29.63,SSE,149,2.0,6.9,27,0.00,,,0.00,meteobridge,2013-09-26 17:00:00,
2013-09-26 11:05:00,74.8,38.7,29.63,South,183,2.0,4.0,27,0.00,,,0.00,meteobridge,2013-09-26 17:05:00,
2013-09-26 11:10:00,74.7,38.5,29.63,SSW,196,2.0,6.9,27,0.00,,,0.00,meteobridge,2013-09-26 17:10:00,
2013-09-26 11:15:00,74.5,37.4,29.63,SSW,209,2.9,8.1,26,0.00,,,0.00,meteobridge,2013-09-26 17:15:00,
2013-09-26 11:20:00,75.0,37.8,29.63,SSE,159,2.9,6.0,26,0.00,,,0.00,meteobridge,2013-09-26 17:20:00,
2013-09-26 11:25:00,75.9,38.7,29.62,South,169,4.0,6.0,26,0.00,,,0.00,meteobridge,2013-09-26 17:25:00,
2013-09-26 11:30:00,75.9,37.6,29.62,South,191,6.0,8.1,25,0.00,,,0.00,meteobridge,2013-09-26 17:30:00,
2013-09-26 11:35:00,75.4,38.1,29.62,West,264,4.0,8.1,26,0.00,,,0.00,meteobridge,2013-09-26 17:35:00,
2013-09-26 11:40:00,76.1,38.7,29.62,SW,224,6.0,8.9,26,0.00,,,0.00,meteobridge,2013-09-26 17:40:00,
2013-09-26 11:45:00,75.9,36.5,29.61,SSE,148,4.9,8.9,24,0.00,,,0.00,meteobridge,2013-09-26 17:45:00,
2013-09-26 11:50:00,76.5,37.0,29.61,SW,223,8.9,12.1,24,0.00,,,0.00,meteobridge,2013-09-26 17:50:00,
2013-09-26 11:55:00,76.3,34.7,29.61,South,187,8.1,8.9,22,0.00,,,0.00,meteobridge,2013-09-26 17:55:00,
2013-09-26 12:00:00,76.5,36.0,29.61,SW,216,8.9,13.0,23,0.00,,,0.00,meteobridge,2013-09-26 18:00:00,
2013-09-26 12:05:00,76.1,37.8,29.61,WSW,243,2.9,10.1,25,0.00,,,0.00,meteobridge,2013-09-26 18:05:00,
2013-09-26 12:10:00,76.6,36.1,29.61,SW,215,6.9,12.1,23,0.00,,,0.00,meteobridge,2013-09-26 18:10:00,
2013-09-26 12:15:00,76.6,37.2,29.61,WSW,250,0.9,10.1,24,0.00,,,0.00,meteobridge,2013-09-26 18:15:00,
2013-09-26 12:20:00,76.8,37.2,29.61,SSE,157,8.1,15.0,24,0.00,,,0.00,meteobridge,2013-09-26 18:20:00,
2013-09-26 12:25:00,77.2,37.6,29.60,SE,126,4.9,8.1,24,0.00,,,0.00,meteobridge,2013-09-26 18:25:00,
2013-09-26 12:30:00,77.4,37.8,29.60,SW,236,4.9,8.1,24,0.00,,,0.00,meteobridge,2013-09-26 18:30:00,
2013-09-26 12:35:00,77.9,39.2,29.60,SSE,167,8.1,12.1,25,0.00,,,0.00,meteobridge,2013-09-26 18:35:00,
2013-09-26 12:40:00,77.7,37.0,29.59,WSW,252,4.0,12.1,23,0.00,,,0.00,meteobridge,2013-09-26 18:40:00,
2013-09-26 12:45:00,78.3,38.5,29.59,SSW,210,8.1,10.1,24,0.00,,,0.00,meteobridge,2013-09-26 18:45:00,
2013-09-26 12:50:00,77.9,36.0,29.59,SSE,161,8.9,17.0,22,0.00,,,0.00,meteobridge,2013-09-26 18:50:00,
2013-09-26 12:55:00,78.3,35.1,29.59,West,261,6.0,10.1,21,0.00,,,0.00,meteobridge,2013-09-26 18:55:00,
2013-09-26 13:00:00,78.4,36.5,29.58,South,177,2.0,8.1,22,0.00,,,0.00,meteobridge,2013-09-26 19:00:00,
2013-09-26 13:05:00,78.6,37.8,29.58,South,190,6.9,8.9,23,0.00,,,0.00,meteobridge,2013-09-26 19:05:00,
2013-09-26 13:10:00,79.3,38.3,29.58,South,173,6.0,12.1,23,0.00,,,0.00,meteobridge,2013-09-26 19:10:00,
2013-09-26 13:15:00,79.9,37.6,29.58,WSW,240,11.0,11.0,22,0.00,,,0.00,meteobridge,2013-09-26 19:15:00,
2013-09-26 13:20:00,79.3,36.0,29.57,SSW,202,4.9,16.1,21,0.00,,,0.00,meteobridge,2013-09-26 19:20:00,
2013-09-26 13:25:00,79.7,35.1,29.57,SSW,195,4.0,12.1,20,0.00,,,0.00,meteobridge,2013-09-26 19:25:00,
2013-09-26 13:30:00,79.9,32.5,29.57,SSW,212,8.1,19.0,18,0.00,,,0.00,meteobridge,2013-09-26 19:30:00,
2013-09-26 13:35:00,80.1,32.7,29.57,SW,223,10.1,16.1,18,0.00,,,0.00,meteobridge,2013-09-26 19:35:00,
2013-09-26 13:40:00,80.1,32.7,29.57,SW,221,4.9,15.0,18,0.00,,,0.00,meteobridge,2013-09-26 19:40:00,
2013-09-26 13:45:00,80.8,33.3,29.56,SW,232,4.0,8.9,18,0.00,,,0.00,meteobridge,2013-09-26 19:45:00,
2013-09-26 13:50:00,81.1,33.6,29.55,SSW,196,2.0,6.9,18,0.00,,,0.00,meteobridge,2013-09-26 19:50:00,
2013-09-26 13:55:00,81.7,34.0,29.55,WSW,245,4.9,10.1,18,0.00,,,0.00,meteobridge,2013-09-26 19:55:00,
2013-09-26 14:00:00,82.0,35.8,29.55,SSE,157,4.0,11.0,19,0.00,,,0.00,meteobridge,2013-09-26 20:00:00,
2013-09-26 14:06:00,81.9,36.9,29.55,SW,218,6.9,12.1,20,0.00,,,0.00,meteobridge,2013-09-26 20:06:00,
2013-09-26 14:11:00,81.3,37.6,29.55,SE,134,8.9,11.0,21,0.00,,,0.00,meteobridge,2013-09-26 20:11:00,
2013-09-26 14:16:00,81.3,35.1,29.54,SSW,192,6.0,12.1,19,0.00,,,0.00,meteobridge,2013-09-26 20:16:00,
2013-09-26 14:21:00,81.3,36.5,29.54,South,190,4.0,13.0,20,0.00,,,0.00,meteobridge,2013-09-26 20:21:00,
2013-09-26 14:26:00,81.3,37.6,29.54,SSE,162,4.9,8.1,21,0.00,,,0.00,meteobridge,2013-09-26 20:26:00,
2013-09-26 14:31:00,81.9,36.9,29.54,South,171,6.9,13.0,20,0.00,,,0.00,meteobridge,2013-09-26 20:31:00,
2013-09-26 14:36:00,82.0,37.0,29.54,SSE,151,6.9,12.1,20,0.00,,,0.00,meteobridge,2013-09-26 20:36:00,
2013-09-26 14:41:00,81.9,38.1,29.54,WSW,238,6.9,10.1,21,0.00,,,0.00,meteobridge,2013-09-26 20:41:00,
2013-09-26 14:46:00,82.0,37.0,29.53,SW,219,4.0,11.0,20,0.00,,,0.00,meteobridge,2013-09-26 20:46:00,
2013-09-26 14:51:00,82.2,37.2,29.53,West,273,4.0,16.1,20,0.00,,,0.00,meteobridge,2013-09-26 20:51:00,
2013-09-26 14:56:00,82.2,38.5,29.53,SW,227,6.9,6.9,21,0.00,,,0.00,meteobridge,2013-09-26 20:56:00,
2013-09-26 15:01:00,81.7,36.7,29.52,SSW,194,8.1,8.9,20,0.00,,,0.00,meteobridge,2013-09-26 21:01:00,
2013-09-26 15:06:00,82.2,34.5,29.53,SW,218,8.9,13.0,18,0.00,,,0.00,meteobridge,2013-09-26 21:06:00,
2013-09-26 15:11:00,81.7,35.4,29.52,WSW,238,8.1,12.1,19,0.00,,,0.00,meteobridge,2013-09-26 21:11:00,
2013-09-26 15:16:00,82.2,35.8,29.52,SW,227,6.9,6.9,19,0.00,,,0.00,meteobridge,2013-09-26 21:16:00,
2013-09-26 15:21:00,82.2,37.2,29.52,SE,140,2.9,6.9,20,0.00,,,0.00,meteobridge,2013-09-26 21:21:00,
2013-09-26 15:26:00,82.8,37.6,29.52,SSW,213,6.0,8.9,20,0.00,,,0.00,meteobridge,2013-09-26 21:26:00,
2013-09-26 15:31:00,82.6,38.7,29.51,SW,225,4.9,10.1,21,0.00,,,0.00,meteobridge,2013-09-26 21:31:00,
2013-09-26 15:36:00,82.6,37.4,29.51,SSW,210,6.0,11.0,20,0.00,,,0.00,meteobridge,2013-09-26 21:36:00,
2013-09-26 15:41:00,81.9,38.1,29.51,SSE,155,10.1,10.1,21,0.00,,,0.00,meteobridge,2013-09-26 21:41:00,
2013-09-26 15:46:00,82.0,38.3,29.51,SSW,196,6.0,11.0,21,0.00,,,0.00,meteobridge,2013-09-26 21:46:00,
2013-09-26 15:51:00,82.4,38.5,29.51,South,174,4.0,8.1,21,0.00,,,0.00,meteobridge,2013-09-26 21:51:00,
2013-09-26 15:56:00,82.8,37.6,29.51,South,173,2.9,13.0,20,0.00,,,0.00,meteobridge,2013-09-26 21:56:00,
2013-09-26 16:01:00,82.6,37.4,29.50,South,185,4.9,15.0,20,0.00,,,0.00,meteobridge,2013-09-26 22:01:00,
2013-09-26 16:06:00,82.9,39.0,29.50,SW,229,4.9,8.1,21,0.00,,,0.00,meteobridge,2013-09-26 22:06:00,
2013-09-26 16:11:00,82.8,38.8,29.50,WSW,243,12.1,12.1,21,0.00,,,0.00,meteobridge,2013-09-26 22:11:00,
2013-09-26 16:16:00,82.8,38.8,29.50,SSW,198,6.9,13.0,21,0.00,,,0.00,meteobridge,2013-09-26 22:16:00,
2013-09-26 16:21:00,82.2,39.6,29.50,SSE,168,6.9,16.1,22,0.00,,,0.00,meteobridge,2013-09-26 22:21:00,
2013-09-26 16:26:00,82.6,39.9,29.50,South,170,4.0,12.1,22,0.00,,,0.00,meteobridge,2013-09-26 22:26:00,
2013-09-26 16:31:00,82.4,38.5,29.50,SE,140,6.9,12.1,21,0.00,,,0.00,meteobridge,2013-09-26 22:31:00,
2013-09-26 16:36:00,82.2,39.6,29.50,SSE,159,12.1,15.0,22,0.00,,,0.00,meteobridge,2013-09-26 22:36:00,
2013-09-26 16:41:00,81.9,39.2,29.50,WSW,239,8.9,13.0,22,0.00,,,0.00,meteobridge,2013-09-26 22:41:00,
2013-09-26 16:46:00,82.0,39.4,29.50,SE,140,6.0,13.0,22,0.00,,,0.00,meteobridge,2013-09-26 22:46:00,
2013-09-26 16:51:00,81.9,38.1,29.50,SSE,152,6.0,10.1,21,0.00,,,0.00,meteobridge,2013-09-26 22:51:00,
2013-09-26 16:56:00,82.0,39.4,29.49,SSE,151,14.1,14.1,22,0.00,,,0.00,meteobridge,2013-09-26 22:56:00,
2013-09-26 17:01:00,82.0,38.3,29.49,SSW,199,6.9,15.0,21,0.00,,,0.00,meteobridge,2013-09-26 23:01:00,
2013-09-26 17:06:00,81.7,39.2,29.49,SSE,154,4.9,13.0,22,0.00,,,0.00,meteobridge,2013-09-26 23:06:00,
2013-09-26 17:11:00,81.7,39.2,29.49,South,182,8.9,12.1,22,0.00,,,0.00,meteobridge,2013-09-26 23:11:00,
2013-09-26 17:16:00,81.7,39.2,29.49,SW,222,11.0,11.0,22,0.00,,,0.00,meteobridge,2013-09-26 23:16:00,
2013-09-26 17:21:00,81.3,38.8,29.49,SW,214,6.0,17.0,22,0.00,,,0.00,meteobridge,2013-09-26 23:21:00,
2013-09-26 17:26:00,81.5,39.0,29.49,SSW,210,10.1,12.1,22,0.00,,,0.00,meteobridge,2013-09-26 23:26:00,
2013-09-26 17:31:00,81.1,38.7,29.50,SSE,163,13.0,16.1,22,0.00,,,0.00,meteobridge,2013-09-26 23:31:00,
2013-09-26 17:36:00,81.0,39.7,29.49,SSW,200,6.9,15.0,23,0.00,,,0.00,meteobridge,2013-09-26 23:36:00,
2013-09-26 17:41:00,81.0,39.7,29.50,SSE,161,11.0,13.0,23,0.00,,,0.00,meteobridge,2013-09-26 23:41:00,
2013-09-26 17:46:00,80.8,40.6,29.49,SSW,213,4.0,14.1,24,0.00,,,0.00,meteobridge,2013-09-26 23:46:00,
2013-09-26 17:51:00,80.4,40.3,29.49,SE,127,6.0,11.0,24,0.00,,,0.00,meteobridge,2013-09-26 23:51:00,
2013-09-26 17:56:00,80.2,40.1,29.49,SE,130,11.0,11.0,24,0.00,,,0.00,meteobridge,2013-09-26 23:56:00,
2013-09-26 18:01:00,80.1,41.0,29.49,South,178,6.0,14.1,25,0.00,,,0.00,meteobridge,2013-09-27 00:01:00,
2013-09-26 18:06:00,79.7,40.8,29.49,SSE,148,4.0,15.0,25,0.00,,,0.00,meteobridge,2013-09-27 00:06:00,
2013-09-26 18:11:00,79.5,40.6,29.49,South,172,6.0,12.1,25,0.00,,,0.00,meteobridge,2013-09-27 00:11:00,
2013-09-26 18:16:00,79.3,41.5,29.49,SSE,157,4.9,16.1,26,0.00,,,0.00,meteobridge,2013-09-27 00:16:00,
2013-09-26 18:21:00,79.0,42.1,29.49,SSW,192,8.1,12.1,27,0.00,,,0.00,meteobridge,2013-09-27 00:21:00,
2013-09-26 18:26:00,78.6,41.9,29.49,SSW,205,6.9,12.1,27,0.00,,,0.00,meteobridge,2013-09-27 00:26:00,
2013-09-26 18:31:00,78.4,41.7,29.49,SE,144,6.9,11.0,27,0.00,,,0.00,meteobridge,2013-09-27 00:31:00,
2013-09-26 18:36:00,78.3,41.5,29.49,SW,227,11.0,17.0,27,0.00,,,0.00,meteobridge,2013-09-27 00:36:00,
2013-09-26 18:41:00,77.9,41.2,29.50,South,175,6.0,13.0,27,0.00,,,0.00,meteobridge,2013-09-27 00:41:00,
2013-09-26 18:46:00,77.5,41.0,29.50,SSE,160,8.9,14.1,27,0.00,,,0.00,meteobridge,2013-09-27 00:46:00,
2013-09-26 18:51:00,77.4,41.7,29.49,SW,232,4.0,14.1,28,0.00,,,0.00,meteobridge,2013-09-27 00:51:00,
2013-09-26 18:56:00,76.8,41.2,29.50,SSE,160,10.1,12.1,28,0.00,,,0.00,meteobridge,2013-09-27 00:56:00,
2013-09-26 19:01:00,76.6,41.2,29.50,WSW,254,2.9,8.1,28,0.00,,,0.00,meteobridge,2013-09-27 01:01:00,
2013-09-26 19:06:00,76.3,41.7,29.50,SW,224,4.0,11.0,29,0.00,,,0.00,meteobridge,2013-09-27 01:06:00,
2013-09-26 19:11:00,75.7,41.2,29.50,WSW,249,6.0,6.9,29,0.00,,,0.00,meteobridge,2013-09-27 01:11:00,
2013-09-26 19:16:00,75.6,41.0,29.50,SW,230,4.9,12.1,29,0.00,,,0.00,meteobridge,2013-09-27 01:16:00,
2013-09-26 19:21:00,75.4,40.1,29.51,SE,146,4.0,14.1,28,0.00,,,0.00,meteobridge,2013-09-27 01:21:00,
2013-09-26 19:26:00,75.4,40.1,29.51,SSW,206,6.0,8.1,28,0.00,,,0.00,meteobridge,2013-09-27 01:26:00,
2013-09-26 19:31:00,75.0,39.7,29.51,SSW,193,6.0,8.9,28,0.00,,,0.00,meteobridge,2013-09-27 01:31:00,
2013-09-26 19:36:00,74.7,39.4,29.51,South,184,6.9,6.9,28,0.00,,,0.00,meteobridge,2013-09-27 01:36:00,
2013-09-26 19:41:00,74.5,38.3,29.51,SW,224,6.9,8.9,27,0.00,,,0.00,meteobridge,2013-09-27 01:41:00,
2013-09-26 19:46:00,74.3,38.1,29.52,SW,221,6.0,11.0,27,0.00,,,0.00,meteobridge,2013-09-27 01:46:00,
2013-09-26 19:51:00,74.3,37.2,29.52,SSE,167,4.0,8.9,26,0.00,,,0.00,meteobridge,2013-09-27 01:51:00,
2013-09-26 19:56:00,74.1,36.0,29.52,SSW,209,4.0,14.1,25,0.00,,,0.00,meteobridge,2013-09-27 01:56:00,
2013-09-26 20:01:00,74.1,35.1,29.52,WSW,253,4.0,10.1,24,0.00,,,0.00,meteobridge,2013-09-27 02:01:00,
2013-09-26 20:06:00,73.9,36.0,29.52,SSW,200,2.0,13.0,25,0.00,,,0.00,meteobridge,2013-09-27 02:06:00,
2013-09-26 20:11:00,73.8,34.7,29.53,WSW,238,6.0,8.1,24,0.00,,,0.00,meteobridge,2013-09-27 02:11:00,
2013-09-26 20:16:00,73.6,35.6,29.53,SSW,198,6.0,14.1,25,0.00,,,0.00,meteobridge,2013-09-27 02:16:00,
2013-09-26 20:21:00,73.2,35.2,29.54,SSE,162,4.9,13.0,25,0.00,,,0.00,meteobridge,2013-09-27 02:21:00,
2013-09-26 20:26:00,73.0,35.1,29.54,SW,221,0.9,13.0,25,0.00,,,0.00,meteobridge,2013-09-27 02:26:00,
2013-09-26 20:31:00,73.0,34.2,29.55,SSW,205,6.9,11.0,24,0.00,,,0.00,meteobridge,2013-09-27 02:31:00,
2013-09-26 20:36:00,72.9,35.1,29.55,SSW,192,2.9,6.9,25,0.00,,,0.00,meteobridge,2013-09-27 02:36:00,
2013-09-26 20:41:00,72.3,35.6,29.55,SW,218,2.0,8.1,26,0.00,,,0.00,meteobridge,2013-09-27 02:41:00,
2013-09-26 20:46:00,72.1,36.3,29.56,SE,140,6.0,6.0,27,0.00,,,0.00,meteobridge,2013-09-27 02:46:00,
2013-09-26 20:51:00,72.0,36.1,29.56,SSW,213,4.0,8.1,27,0.00,,,0.00,meteobridge,2013-09-27 02:51:00,
2013-09-26 20:56:00,72.0,36.1,29.57,SSW,205,8.1,8.9,27,0.00,,,0.00,meteobridge,2013-09-27 02:56:00,
2013-09-26 21:01:00,72.0,36.1,29.57,South,171,6.0,6.0,27,0.00,,,0.00,meteobridge,2013-09-27 03:01:00,
2013-09-26 21:06:00,71.6,35.8,29.57,SW,229,2.9,6.0,27,0.00,,,0.00,meteobridge,2013-09-27 03:06:00,
2013-09-26 21:11:00,71.4,36.7,29.57,South,179,4.0,4.9,28,0.00,,,0.00,meteobridge,2013-09-27 03:11:00,
2013-09-26 21:16:00,70.9,39.6,29.57,ESE,112,2.0,4.0,32,0.00,,,0.00,meteobridge,2013-09-27 03:16:00,
2013-09-26 21:21:00,69.6,39.9,29.57,SE,139,0.0,2.9,34,0.00,,,0.00,meteobridge,2013-09-27 03:21:00,
2013-09-26 21:26:00,68.5,39.7,29.57,SSE,167,0.9,2.9,35,0.00,,,0.00,meteobridge,2013-09-27 03:26:00,
2013-09-26 21:31:00,68.0,40.1,29.57,SE,136,0.0,2.9,36,0.00,,,0.00,meteobridge,2013-09-27 03:31:00,
2013-09-26 21:36:00,67.6,40.5,29.57,SSE,159,0.0,6.0,37,0.00,,,0.00,meteobridge,2013-09-27 03:36:00,
2013-09-26 21:41:00,67.5,39.6,29.57,SSE,156,0.9,4.0,36,0.00,,,0.00,meteobridge,2013-09-27 03:41:00,
2013-09-26 21:47:00,67.3,40.1,29.58,SSE,157,0.0,0.9,37,0.00,,,0.00,meteobridge,2013-09-27 03:47:00,
2013-09-26 21:52:00,66.7,40.3,29.58,SSE,155,2.0,2.9,38,0.00,,,0.00,meteobridge,2013-09-27 03:52:00,
2013-09-26 21:57:00,66.7,38.3,29.58,South,172,2.0,11.0,35,0.00,,,0.00,meteobridge,2013-09-27 03:57:00,
2013-09-26 22:01:00,67.8,36.1,29.58,South,180,4.9,8.9,31,0.00,,,0.00,meteobridge,2013-09-27 04:01:00,
2013-09-26 22:02:00,68.5,36.7,29.58,SSE,167,4.0,8.1,31,0.00,,,0.00,meteobridge,2013-09-27 04:02:00,
2013-09-26 22:07:00,68.7,39.2,29.58,SSE,150,2.0,4.0,34,0.00,,,0.00,meteobridge,2013-09-27 04:07:00,
2013-09-26 22:12:00,68.0,38.7,29.58,SSW,200,2.0,6.9,34,0.00,,,0.00,meteobridge,2013-09-27 04:12:00,
2013-09-26 22:17:00,68.2,37.9,29.59,SSE,151,2.9,4.9,33,0.00,,,0.00,meteobridge,2013-09-27 04:17:00,
2013-09-26 22:22:00,67.8,39.2,29.59,SSE,158,0.9,4.9,35,0.00,,,0.00,meteobridge,2013-09-27 04:22:00,
2013-09-26 22:27:00,67.3,39.4,29.59,SE,140,2.9,4.9,36,0.00,,,0.00,meteobridge,2013-09-27 04:27:00,
2013-09-26 22:32:00,66.7,40.3,29.59,SSE,161,2.0,2.9,38,0.00,,,0.00,meteobridge,2013-09-27 04:32:00,
2013-09-26 22:37:00,65.8,40.8,29.59,SE,146,2.0,2.0,40,0.00,,,0.00,meteobridge,2013-09-27 04:37:00,
2013-09-26 22:42:00,65.5,41.2,29.59,SE,140,2.0,2.9,41,0.00,,,0.00,meteobridge,2013-09-27 04:42:00,
2013-09-26 22:47:00,65.1,41.5,29.59,SSE,148,0.9,0.9,42,0.00,,,0.00,meteobridge,2013-09-27 04:47:00,
2013-09-26 22:52:00,64.6,41.5,29.59,SSE,148,0.0,0.9,43,0.00,,,0.00,meteobridge,2013-09-27 04:52:00,
2013-09-26 22:57:00,64.2,41.9,29.59,SSE,148,0.0,0.9,44,0.00,,,0.00,meteobridge,2013-09-27 04:57:00,
2013-09-26 23:02:00,63.7,41.9,29.59,SSE,148,0.0,0.9,45,0.00,,,0.00,meteobridge,2013-09-27 05:02:00,
2013-09-26 23:07:00,63.1,41.5,29.58,SSE,148,0.0,0.9,45,0.00,,,0.00,meteobridge,2013-09-27 05:07:00,
2013-09-26 23:12:00,62.8,41.7,29.59,SE,132,2.9,4.0,46,0.00,,,0.00,meteobridge,2013-09-27 05:12:00,
2013-09-26 23:17:00,63.1,40.8,29.58,SSE,155,2.0,4.9,44,0.00,,,0.00,meteobridge,2013-09-27 05:17:00,
2013-09-26 23:22:00,64.0,41.2,29.59,SE,140,2.0,6.0,43,0.00,,,0.00,meteobridge,2013-09-27 05:22:00,
2013-09-26 23:27:00,64.2,40.6,29.59,SSE,165,4.0,6.0,42,0.00,,,0.00,meteobridge,2013-09-27 05:27:00,
2013-09-26 23:33:00,64.6,41.0,29.59,SSE,157,2.0,4.9,42,0.00,,,0.00,meteobridge,2013-09-27 05:33:00,
2013-09-26 23:38:00,64.6,41.0,29.59,SSE,153,0.0,2.9,42,0.00,,,0.00,meteobridge,2013-09-27 05:38:00,
2013-09-26 23:43:00,64.2,41.2,29.59,SE,145,2.9,4.0,43,0.00,,,0.00,meteobridge,2013-09-27 05:43:00,
2013-09-26 23:48:00,64.2,41.2,29.58,SSE,148,0.9,4.0,43,0.00,,,0.00,meteobridge,2013-09-27 05:48:00,
2013-09-26 23:53:00,64.0,41.2,29.58,SSE,158,2.0,2.9,43,0.00,,,0.00,meteobridge,2013-09-27 05:53:00,
2013-09-26 23:58:00,64.0,41.2,29.59,SSE,147,2.0,4.0,43,0.00,,,0.00,meteobridge,2013-09-27 05:58:00,